Monroe, NC

5:01 AM EDT on November 01, 2014 (GMT -0400)
Monroe | Change Station
CLOSE
Current Station
Airport
Location: Monroe,
Elevation: 679 ft
Nearby Weather Stations

Elev 679 ft 35.01 °N, 80.62 °W | Updated 8 minutes ago

Overcast
Overcast
46 °F
Feels Like 41 °F
N
12
Wind Variable Wind from North

Today
High -- | Low -- °F
--% Chance of Precip.
Yesterday
High -- | Low -- °F
Precip. -- in
7:43 AM 6:28 PM
Waxing Gibbous, 64% visible
Pressure 29.70 in
Visibility 10.0 miles
Clouds Scattered Clouds 1100 ft
Overcast 4000 ft
Windchill 41 °F
Dew Point 42 °F
Humidity 86%
Rainfall 0.19 in
Snow Depth Not available.
UV 0 out of 12
Pollen 2.20 out of 12
Air Quality Not available.
Flu Activity Not available.
METAR KEQY 010853Z AUTO 36010KT 10SM SCT011 OVC040 08/06 A2967 RMK AO2 SLP056 60008 T00780056 58022

More Conditions Fewer Conditions

Pressure 29.70 in
Visibility 10.0 miles
Clouds Scattered Clouds 1100 ft
Overcast 4000 ft
Windchill 41 °F
Dew Point 42 °F
Humidity 86%
Rainfall 0.19 in
Snow Depth Not available.
UV 0 out of 12
Pollen 2.20 out of 12
Air Quality Not available.
Flu Activity Not available.
METAR KEQY 010853Z AUTO 36010KT 10SM SCT011 OVC040 08/06 A2967 RMK AO2 SLP056 60008 T00780056 58022

More Conditions Fewer Conditions

10-Day Weather Forecast

Almanac

Astronomy

Nov. 01, 2014 Rise Set
Actual Time
Civil Twilight
Nautical Twilight
Astronomical Twilight
Moon
Length of Visible Light
Length of Day
Tomorrow will be .
, % of the Moon is Illuminated

Today's Extremes

State Highs State Lows

Community

WunderPhotos

Upload Photos

1,766,871 photos uploaded!

WunderBlogs® & News

Nearby

Air Quality

  Air Quality AQ Index Pollutant
Not available.

Snow Depth

Station Depth Elevation

Earthquake Activity

City Distance Mag. Time & Date
Minimum magnitude displayed is 2.5.

Coastal Water Temperatures

Place Temperature

Nearby Weather Stations